Time;durP1;ratioP1;P1;durP2;ratioP2;P2;SDS_P1;SDS_P2;PMS_P1;PMS_P2;Temp;Humidity;BMP_temperature;BMP_pressure;BME280_temperature;BME280_humidity;BME280_pressure;Samples;Min_cycle;Max_cycle;Signal;HPM_P1;HPM_P2
2023/10/13 00:01:23;;;;;;;25.70;12.17;;;;;;;-143.21;66.72;72778.22;5069985;28;20318;-84
2023/10/13 00:03:51;;;;;;;20.77;12.27;;;;;;;-143.21;66.68;72780.19;5072868;28;20276;-86
2023/10/13 00:06:18;;;;;;;24.70;11.67;;;;;;;-143.21;66.84;72782.16;5073251;28;20202;-86
2023/10/13 00:08:46;;;;;;;28.60;12.87;;;;;;;-143.21;66.83;72794.06;5073838;28;20208;-87
2023/10/13 00:11:33;;;;;;;20.17;11.13;;;;;;;-143.21;67.11;72800.03;5073606;28;20205;-84
2023/10/13 00:14:03;;;;;;;17.30;10.37;;;;;;;-143.21;67.32;72804.00;5072236;28;20283;-83
2023/10/13 00:16:30;;;;;;;23.03;10.97;;;;;;;-143.21;66.77;72792.09;5073768;28;20216;-84
2023/10/13 00:18:57;;;;;;;19.27;11.13;;;;;;;-143.21;67.39;72802.00;5073423;28;20202;-84
2023/10/13 00:21:32;;;;;;;20.83;11.00;;;;;;;-143.21;67.45;72804.00;5072764;28;20256;-84
2023/10/13 00:24:02;;;;;;;20.57;10.87;;;;;;;-143.21;67.53;72798.03;5073047;28;20221;-83
2023/10/13 00:26:30;;;;;;;23.13;11.10;;;;;;;-143.21;67.56;72802.00;5073454;28;20236;-83
2023/10/13 00:29:01;;;;;;;20.43;11.27;;;;;;;-143.21;67.69;72796.06;5072480;28;20229;-83
2023/10/13 00:31:33;;;;;;;22.97;11.80;;;;;;;-143.21;67.24;72794.06;5073265;28;20276;-85
2023/10/13 00:34:09;;;;;;;20.43;11.23;;;;;;;-143.21;67.40;72805.97;5073503;28;20285;-87
2023/10/13 00:36:36;;;;;;;23.13;12.50;;;;;;;-143.21;67.43;72807.97;5071533;28;20251;-87
2023/10/13 00:39:05;;;;;;;22.47;13.27;;;;;;;-143.21;67.57;72811.94;5070881;28;20622;-87
2023/10/13 00:41:50;;;;;;;26.40;12.67;;;;;;;-143.21;67.38;72825.81;5070634;28;20247;-87
2023/10/13 00:44:16;;;;;;;20.77;11.43;;;;;;;-143.21;67.38;72817.88;5072867;28;20212;-86
2023/10/13 00:46:45;;;;;;;20.23;11.30;;;;;;;-143.21;67.91;72827.78;5073454;28;20225;-86
2023/10/13 00:49:15;;;;;;;26.00;12.67;;;;;;;-143.21;68.03;72827.78;5073929;28;20193;-86
2023/10/13 00:51:47;;;;;;;20.60;12.27;;;;;;;-143.21;68.08;72829.78;5073453;28;20197;-86
2023/10/13 00:54:18;;;;;;;29.33;11.97;;;;;;;-143.21;67.88;72833.75;5073126;28;20212;-86
2023/10/13 00:56:49;;;;;;;26.03;12.10;;;;;;;-143.21;67.78;72831.75;5072819;28;20208;-86
2023/10/13 00:59:15;;;;;;;26.43;12.00;;;;;;;-143.21;68.05;72831.75;5073089;28;20185;-85
2023/10/13 01:01:43;;;;;;;22.43;11.47;;;;;;;-143.21;67.69;72829.78;5071761;28;20672;-85
2023/10/13 01:04:12;;;;;;;27.33;11.63;;;;;;;-143.21;67.74;72823.81;5072172;28;20212;-86
2023/10/13 01:06:39;;;;;;;22.70;11.67;;;;;;;-143.21;67.62;72827.78;5071985;28;20582;-84
2023/10/13 01:09:12;;;;;;;19.73;12.30;;;;;;;-143.21;67.95;72835.72;5072712;28;20198;-85
2023/10/13 01:11:42;;;;;;;23.23;11.23;;;;;;;-143.21;67.64;72839.69;5072594;28;20207;-84
2023/10/13 01:14:11;;;;;;;18.70;10.83;;;;;;;-143.21;68.13;72851.59;5071194;28;20225;-83
2023/10/13 01:16:40;;;;;;;24.90;11.03;;;;;;;-143.21;68.37;72853.56;5072012;28;20205;-85
2023/10/13 01:19:06;;;;;;;26.93;11.90;;;;;;;-143.21;68.25;72853.56;5072022;28;20265;-87
2023/10/13 01:21:33;;;;;;;27.27;11.90;;;;;;;-143.21;68.26;72857.53;5072387;28;20687;-85
2023/10/13 01:24:07;;;;;;;27.57;12.67;;;;;;;-143.21;68.02;72855.56;5072308;28;20194;-85
2023/10/13 01:26:38;;;;;;;23.97;12.33;;;;;;;-143.21;68.43;72863.50;5068707;28;20201;-86
2023/10/13 01:29:14;;;;;;;22.63;12.20;;;;;;;-143.21;68.42;72859.53;5067698;28;20681;-83
2023/10/13 01:31:46;;;;;;;21.40;11.13;;;;;;;-143.21;68.58;72865.47;5069264;28;20284;-85
2023/10/13 01:34:14;;;;;;;21.60;11.70;;;;;;;-143.21;68.61;72871.44;5072358;28;20209;-85
2023/10/13 01:36:41;;;;;;;21.90;11.23;;;;;;;-143.21;68.48;72871.44;5072661;28;20201;-86
2023/10/13 01:39:10;;;;;;;19.87;10.60;;;;;;;-143.21;68.94;72879.38;5072346;28;20664;-85
2023/10/13 01:41:39;;;;;;;19.20;9.63;;;;;;;-143.21;69.10;72881.34;5073174;28;20248;-86
2023/10/13 01:44:06;;;;;;;23.23;10.83;;;;;;;-143.21;69.32;72885.31;5072453;28;20707;-86
2023/10/13 01:46:32;;;;;;;19.57;9.90;;;;;;;-143.21;69.36;72887.28;5072307;28;20205;-85
2023/10/13 01:48:59;;;;;;;16.07;10.07;;;;;;;-143.21;69.11;72895.22;5072654;28;20613;-84
2023/10/13 01:51:27;;;;;;;17.13;10.63;;;;;;;-143.21;68.66;72881.34;5072333;28;20205;-86
2023/10/13 01:53:56;;;;;;;21.90;10.00;;;;;;;-143.21;68.84;72895.22;5071805;28;20231;-84
2023/10/13 01:56:23;;;;;;;21.93;10.57;;;;;;;-143.21;69.30;72891.25;5071577;28;20940;-84
2023/10/13 01:58:53;;;;;;;21.33;10.17;;;;;;;-143.21;68.76;72891.25;5071008;28;20328;-82
2023/10/13 02:01:26;;;;;;;19.80;10.20;;;;;;;-143.21;68.68;72885.31;5071013;28;20227;-82
2023/10/13 02:04:01;;;;;;;23.13;10.13;;;;;;;-143.21;68.87;72885.31;5071496;28;20217;-81
2023/10/13 02:06:32;;;;;;;18.80;10.50;;;;;;;-143.21;69.17;72895.22;5071193;28;20671;-82
2023/10/13 02:09:05;;;;;;;22.27;10.23;;;;;;;-143.21;69.34;72897.22;5071048;28;20202;-83
2023/10/13 02:11:32;;;;;;;25.93;10.40;;;;;;;-143.21;69.26;72897.22;5070941;28;20263;-81
2023/10/13 02:14:00;;;;;;;19.87;10.67;;;;;;;-143.21;69.17;72891.25;5070850;28;20209;-82
2023/10/13 02:16:26;;;;;;;21.87;9.77;;;;;;;-143.21;68.93;72887.28;5071118;28;20198;-81
2023/10/13 02:18:52;;;;;;;23.13;10.60;;;;;;;-143.21;68.86;72883.31;5070554;28;20218;-81
2023/10/13 02:21:18;;;;;;;21.40;10.50;;;;;;;-143.21;68.99;72899.19;5070485;28;20707;-84
2023/10/13 02:23:59;;;;;;;23.77;11.17;;;;;;;-143.21;69.15;72903.16;5070908;28;20205;-85
2023/10/13 02:26:30;;;;;;;20.37;10.73;;;;;;;-143.21;69.06;72899.19;5071529;28;20201;-85
2023/10/13 02:29:00;;;;;;;17.90;10.47;;;;;;;-143.21;69.12;72907.13;5071767;28;20638;-85
2023/10/13 02:31:27;;;;;;;15.87;10.30;;;;;;;-143.21;69.36;72909.13;5072173;28;20263;-84
2023/10/13 02:33:54;;;;;;;26.27;10.77;;;;;;;-143.21;69.20;72909.13;5070546;28;20243;-84
2023/10/13 02:36:22;;;;;;;24.27;10.93;;;;;;;-143.21;69.31;72909.13;5070188;28;20205;-85
2023/10/13 02:38:50;;;;;;;22.90;11.13;;;;;;;-143.21;69.71;72928.94;5070137;28;20209;-84
2023/10/13 02:41:25;;;;;;;25.60;10.80;;;;;;;-143.21;69.65;72926.97;5071165;28;20229;-84
2023/10/13 02:43:52;;;;;;;20.77;10.30;;;;;;;-143.21;69.76;72926.97;5070920;28;20648;-84
2023/10/13 02:46:22;;;;;;;22.33;11.20;;;;;;;-143.21;69.60;72923.00;5070815;28;20201;-85
2023/10/13 02:48:52;;;;;;;19.90;11.27;;;;;;;-143.21;69.54;72936.88;5073668;28;20652;-86
2023/10/13 02:51:25;;;;;;;30.30;11.67;;;;;;;-143.21;70.06;72938.88;5073134;28;20645;-85
2023/10/13 02:53:52;;;;;;;30.07;12.57;;;;;;;-143.21;69.56;72928.94;5073784;28;20193;-86
2023/10/13 02:56:21;;;;;;;24.37;12.70;;;;;;;-143.21;69.80;72938.88;5073199;28;20197;-91
2023/10/13 02:58:52;;;;;;;27.17;12.23;;;;;;;-143.21;70.19;72942.84;5072816;28;20213;-86
2023/10/13 03:01:19;;;;;;;18.93;11.47;;;;;;;-143.21;70.24;72954.72;5072856;28;20213;-87
2023/10/13 03:03:51;;;;;;;22.33;12.23;;;;;;;-143.21;70.18;72952.75;5071458;28;20300;-86
2023/10/13 03:06:21;;;;;;;22.73;11.93;;;;;;;-143.21;69.81;72942.84;5069909;28;20197;-87
2023/10/13 03:08:48;;;;;;;25.97;12.83;;;;;;;-143.21;69.74;72944.81;5069255;28;20201;-84
2023/10/13 03:11:21;;;;;;;22.13;12.73;;;;;;;-143.21;70.12;72956.72;5069746;28;20280;-84
2023/10/13 03:13:51;;;;;;;23.87;13.10;;;;;;;-143.21;70.00;72956.72;5069993;28;20198;-85
2023/10/13 03:16:18;;;;;;;20.53;13.47;;;;;;;-143.21;69.97;72966.63;5069948;28;20201;-86
2023/10/13 03:18:55;;;;;;;32.47;13.60;;;;;;;-143.21;70.19;72972.59;5070220;28;20679;-85
2023/10/13 03:21:29;;;;;;;29.87;12.60;;;;;;;-143.21;70.53;72968.63;5070689;28;20274;-85
2023/10/13 03:24:03;;;;;;;26.07;14.03;;;;;;;-143.21;70.34;72972.59;5071980;28;20204;-86
2023/10/13 03:26:34;;;;;;;32.87;13.73;;;;;;;-143.21;70.03;72960.69;5068500;28;20587;-86
2023/10/13 03:29:02;;;;;;;26.97;13.77;;;;;;;-143.21;70.40;72966.63;5072054;28;20229;-86
2023/10/13 03:31:30;;;;;;;26.93;12.70;;;;;;;-143.21;70.26;72964.66;5072200;28;20193;-87
2023/10/13 03:33:59;;;;;;;31.53;14.00;;;;;;;-143.21;70.42;72972.59;5071882;28;20668;-86
2023/10/13 03:39:11;;;;;;;29.17;14.83;;;;;;;-143.21;70.23;72970.59;5068690;28;20741;-89
2023/10/13 03:41:39;;;;;;;29.57;13.87;;;;;;;-143.21;69.89;72962.66;5071834;28;20307;-86
2023/10/13 03:44:14;;;;;;;33.30;13.77;;;;;;;-143.21;69.96;72962.66;5072316;28;20271;-86
2023/10/13 03:46:42;;;;;;;36.13;13.17;;;;;;;-143.21;69.84;72960.69;5072357;28;20200;-86
2023/10/13 03:49:12;;;;;;;33.43;14.10;;;;;;;-143.21;70.37;72956.72;5070653;28;20687;-85
2023/10/13 03:51:40;;;;;;;33.63;13.80;;;;;;;-143.21;70.24;72964.66;5071026;28;20197;-87
2023/10/13 03:54:08;;;;;;;26.13;12.07;;;;;;;-143.21;70.42;72956.72;5071048;28;20274;-87
2023/10/13 03:56:39;;;;;;;24.67;12.43;;;;;;;-143.21;70.23;72946.81;5071135;28;20219;-88
2023/10/13 03:59:19;;;;;;;25.83;12.40;;;;;;;-143.21;70.47;72956.72;5067156;28;20250;-88
2023/10/13 04:15:37;;;;;;;25.13;13.63;;;;;;;-143.21;70.31;72956.72;5070490;28;20213;-88
2023/10/13 04:18:14;;;;;;;27.83;14.00;;;;;;;-143.21;70.63;72966.63;5067794;28;20219;-88
2023/10/13 04:20:46;;;;;;;29.13;13.30;;;;;;;-143.21;71.15;72972.59;5067824;28;20739;-86
2023/10/13 04:23:26;;;;;;;34.57;13.53;;;;;;;-143.21;71.23;72986.47;5070778;28;20564;-87
2023/10/13 04:26:05;;;;;;;32.60;14.00;;;;;;;-143.21;71.42;72982.50;5070134;28;20198;-86
2023/10/13 04:28:39;;;;;;;26.37;14.37;;;;;;;-143.21;71.71;72988.47;5064482;28;20319;-80
2023/10/13 04:31:12;;;;;;;27.70;15.17;;;;;;;-143.21;71.33;72994.41;5063730;28;20201;-81
2023/10/13 04:33:52;;;;;;;45.57;16.23;;;;;;;-143.21;71.30;72998.38;5063053;28;20205;-81
2023/10/13 04:39:29;;;;;;;33.23;15.27;;;;;;;-143.21;71.68;73010.28;5064334;28;20280;-83
2023/10/13 04:42:13;;;;;;;43.83;16.97;;;;;;;-143.21;71.48;73004.31;5067384;28;20616;-83
2023/10/13 04:47:29;;;;;;;33.37;15.07;;;;;;;-143.21;71.24;73006.31;5054300;28;20236;-83
2023/10/13 04:50:00;;;;;;;38.63;15.60;;;;;;;-143.21;70.86;73002.34;5069878;28;20216;-84
2023/10/13 04:55:24;;;;;;;43.17;17.30;;;;;;;-143.21;70.94;73004.31;5056921;28;20276;-82
2023/10/13 04:58:00;;;;;;;48.07;15.87;;;;;;;-143.21;71.40;73016.22;5070457;28;20308;-83
2023/10/13 05:44:32;;;;;;;34.33;14.73;;;;;;;-143.21;71.21;73014.25;5070995;28;20288;-80
2023/10/13 05:45:24;;;;;;;46.27;18.07;;;;;;;-143.21;70.87;72996.38;5075362;28;20212;-85
2023/10/13 05:48:01;;;;;;;34.23;15.53;;;;;;;-143.21;70.61;72982.50;5071714;28;20220;-85
2023/10/13 06:29:19;;;;;;;23.57;12.67;;;;;;;-143.21;70.31;72942.84;5009097;28;20255;-88
2023/10/13 06:31:48;;;;;;;24.77;12.07;;;;;;;-143.21;70.23;72938.88;5009412;28;20669;-88
2023/10/13 06:34:15;;;;;;;28.57;11.57;;;;;;;-143.21;69.99;72923.00;5009788;28;20206;-87
2023/10/13 06:36:48;;;;;;;26.67;11.90;;;;;;;-143.21;69.99;72923.00;5009423;28;20203;-87
2023/10/13 06:39:35;;;;;;;25.63;12.53;;;;;;;-143.21;69.57;72917.06;5009350;28;21168;-84
2023/10/13 06:42:07;;;;;;;23.63;12.17;;;;;;;-143.21;69.42;72905.16;5067995;28;20773;-88
2023/10/13 06:44:34;;;;;;;24.17;12.80;;;;;;;-143.21;69.43;72909.13;5067960;28;21069;-85
2023/10/13 06:47:04;;;;;;;25.13;12.47;;;;;;;-143.21;69.55;72905.16;5068358;28;20212;-88
2023/10/13 06:49:32;;;;;;;25.33;13.03;;;;;;;-143.21;69.50;72899.19;5067754;28;20258;-80
2023/10/13 06:52:06;;;;;;;26.10;12.80;;;;;;;-143.21;69.37;72891.25;5070208;28;20197;-81
2023/10/13 06:54:34;;;;;;;28.57;14.43;;;;;;;-143.21;68.84;72875.41;5067666;28;20201;-82
2023/10/13 06:57:03;;;;;;;21.77;13.57;;;;;;;-143.21;68.40;72865.47;5070738;28;20205;-82
2023/10/13 06:59:32;;;;;;;28.30;13.80;;;;;;;-143.21;67.89;72839.69;5070163;28;20193;-82
2023/10/13 07:02:04;;;;;;;28.97;14.10;;;;;;;-143.21;67.63;72827.78;5069578;28;20225;-81
2023/10/13 07:04:33;;;;;;;24.70;14.30;;;;;;;-143.21;67.69;72819.84;5071240;28;20259;-81
2023/10/13 07:07:03;;;;;;;28.03;14.97;;;;;;;-143.21;67.12;72807.97;5070111;28;20236;-81
2023/10/13 07:09:42;;;;;;;32.83;15.87;;;;;;;-143.21;67.19;72800.03;5066968;28;20198;-80
2023/10/13 07:12:22;;;;;;;31.50;16.53;;;;;;;-143.21;66.66;72790.09;5066715;28;20201;-80
2023/10/13 07:14:59;;;;;;;34.07;16.97;;;;;;;-143.21;66.94;72784.16;5069496;28;20204;-80
2023/10/13 07:17:33;;;;;;;30.00;16.80;;;;;;;-143.21;66.42;72784.16;5069709;28;20221;-81
2023/10/13 07:20:14;;;;;;;26.87;16.47;;;;;;;-143.21;66.59;72778.22;5069618;28;20201;-81
2023/10/13 07:22:45;;;;;;;41.50;17.33;;;;;;;-143.21;65.96;72766.31;5067445;28;20213;-80
2023/10/13 07:25:23;;;;;;;41.00;17.43;;;;;;;-143.21;66.04;72756.38;5068874;28;20208;-80
2023/10/13 07:27:56;;;;;;;35.43;16.70;;;;;;;-143.21;65.75;72738.53;5068922;28;20207;-81
2023/10/13 07:30:26;;;;;;;30.77;17.10;;;;;;;-143.21;64.93;72724.66;5068308;28;20237;-80
2023/10/13 07:32:57;;;;;;;32.40;16.43;;;;;;;-143.21;65.47;72726.63;5067993;28;20981;-81
2023/10/13 07:35:35;;;;;;;34.70;17.33;;;;;;;-143.21;64.76;72700.84;5068678;28;20209;-81
2023/10/13 07:38:07;;;;;;;32.30;16.97;;;;;;;-143.21;63.94;72686.97;5066052;28;20655;-81
2023/10/13 07:40:50;;;;;;;43.67;18.30;;;;;;;-143.21;63.51;72683.00;5069696;28;20250;-81
2023/10/13 07:43:21;;;;;;;42.40;17.13;;;;;;;-143.21;63.69;72669.13;5067620;28;20224;-81
2023/10/13 07:45:51;;;;;;;36.90;16.40;;;;;;;-143.21;63.78;72659.19;5068487;28;20201;-81
2023/10/13 07:48:23;;;;;;;40.03;18.07;;;;;;;-143.21;62.65;72639.38;5069573;28;20663;-80
2023/10/13 07:51:04;;;;;;;41.07;16.80;;;;;;;-143.21;62.57;72625.47;5068734;28;20201;-81
2023/10/13 07:53:40;;;;;;;29.13;16.87;;;;;;;-143.21;62.68;72623.50;5065788;28;20216;-80
2023/10/13 07:56:11;;;;;;;29.23;17.27;;;;;;;-143.21;62.10;72609.63;5066525;28;20599;-81
2023/10/13 07:58:47;;;;;;;31.23;17.23;;;;;;;-143.21;61.78;72597.72;5068950;28;20197;-80
2023/10/13 08:01:18;;;;;;;34.80;16.33;;;;;;;-143.21;61.18;72571.94;5069774;28;20275;-80
2023/10/13 08:03:44;;;;;;;34.77;16.93;;;;;;;-143.21;60.92;72558.06;5069352;28;20213;-81
2023/10/13 08:06:26;;;;;;;40.40;18.07;;;;;;;-143.21;60.86;72542.19;5068782;28;20255;-82
2023/10/13 08:08:59;;;;;;;36.93;16.80;;;;;;;-143.21;60.86;72526.31;5069305;28;20284;-82
2023/10/13 08:11:45;;;;;;;36.57;18.27;;;;;;;-143.21;60.19;72506.50;5069227;28;20201;-83
2023/10/13 08:14:22;;;;;;;35.63;17.67;;;;;;;-143.21;60.05;72490.63;5066866;28;20221;-81
2023/10/13 08:17:07;;;;;;;37.03;17.57;;;;;;;-143.21;59.67;72472.78;5069296;28;20224;-82
2023/10/13 08:19:41;;;;;;;31.20;17.13;;;;;;;-143.21;58.99;72441.03;5066025;28;20229;-82
2023/10/13 08:22:25;;;;;;;32.13;17.93;;;;;;;-143.21;58.28;72423.19;5067032;28;20574;-82
2023/10/13 08:27:49;;;;;;;30.43;18.00;;;;;;;-143.21;56.87;72379.56;5072954;28;20197;-83
2023/10/13 08:30:29;;;;;;;35.70;18.27;;;;;;;-143.21;56.12;72357.75;5072067;28;20671;-83
2023/10/13 08:33:04;;;;;;;42.23;18.10;;;;;;;-143.21;55.81;72328.00;5072235;28;20201;-82
2023/10/13 08:35:54;;;;;;;41.08;17.92;;;;;;;-143.21;55.65;72300.25;5073299;28;20208;-83
2023/10/13 08:38:49;;;;;;;31.00;16.65;;;;;;;-143.21;54.31;72256.59;5073168;28;20213;-84
2023/10/13 08:41:31;;;;;;;36.33;17.48;;;;;;;-143.21;53.93;72224.88;5072287;28;20197;-83
2023/10/13 08:44:09;;;;;;;39.17;16.00;;;;;;;-143.21;53.45;72189.19;5072866;28;20263;-82
2023/10/13 08:49:41;;;;;;;36.63;16.30;;;;;;;-143.21;50.99;72139.59;5071510;28;20199;-82
2023/10/13 08:52:46;;;;;;;32.47;16.20;;;;;;;-143.21;50.75;72117.78;5070106;28;20201;-83
2023/10/13 08:56:00;;;;;;;28.67;14.85;;;;;;;-143.21;49.86;72078.13;5071017;28;20208;-80
2023/10/13 08:59:05;;;;;;;38.13;15.90;;;;;;;-143.21;50.14;72042.44;5071097;28;20221;-80
2023/10/13 09:04:59;;;;;;;31.50;15.32;;;;;;;-143.21;48.08;71959.16;5025968;28;20583;-80
2023/10/13 09:07:28;;;;;;;30.90;14.63;;;;;;;-143.21;47.49;71921.47;5071906;28;20650;-82
2023/10/13 09:10:32;;;;;;;29.25;14.65;;;;;;;-143.21;46.87;71875.88;5071925;28;20213;-82
2023/10/13 09:19:11;;;;;;;38.63;15.23;;;;;;;-143.21;42.91;71707.31;5070490;28;20205;-81
2023/10/13 09:21:50;;;;;;;31.98;14.95;;;;;;;-143.21;42.91;71685.50;5072404;28;20251;-83
2023/10/13 09:27:04;;;;;;;33.22;14.30;;;;;;;-143.21;41.09;71576.47;5070705;28;20702;-80
2023/10/13 09:29:38;;;;;;;30.38;13.40;;;;;;;-143.21;40.54;71526.91;5071202;28;20233;-81
2023/10/13 09:32:11;;;;;;;34.25;13.75;;;;;;;-143.21;39.00;71479.31;5068431;28;20224;-81
2023/10/13 09:34:44;;;;;;;23.35;12.23;;;;;;;-143.21;38.42;71439.66;5070670;28;20268;-79
2023/10/13 09:37:17;;;;;;;24.67;12.07;;;;;;;-143.21;37.87;71417.84;5068578;28;20543;-80
2023/10/13 09:39:48;;;;;;;18.27;9.90;;;;;;;-143.21;37.29;71411.91;5070578;28;20719;-81
2023/10/13 09:42:18;;;;;;;26.90;10.95;;;;;;;-143.21;36.97;71407.94;5069773;28;20575;-79
2023/10/13 09:44:49;;;;;;;19.35;10.73;;;;;;;-143.21;37.58;71384.16;5070844;28;20197;-80
2023/10/13 09:47:32;;;;;;;31.50;13.43;;;;;;;-143.21;37.85;71376.22;5070826;28;20208;-79
2023/10/13 09:50:04;;;;;;;22.63;11.55;;;;;;;-143.21;37.15;71368.28;5071964;28;20544;-82
2023/10/13 09:52:37;;;;;;;23.00;11.25;;;;;;;-143.21;37.07;71368.28;5068803;28;20193;-82
2023/10/13 09:55:13;;;;;;;19.13;9.43;;;;;;;-143.21;35.95;71352.44;5071948;28;20263;-82
2023/10/13 09:57:48;;;;;;;18.17;8.63;;;;;;;-143.21;35.67;71328.63;5069919;28;20293;-83
2023/10/13 10:00:44;;;;;;;20.17;9.98;;;;;;;-143.21;34.66;71279.06;5071079;28;20248;-83
2023/10/13 10:03:29;;;;;;;15.85;9.00;;;;;;;-143.21;34.20;71215.63;5069234;28;20268;-83
2023/10/13 10:06:14;;;;;;;22.73;11.70;;;;;;;-143.21;33.86;71140.28;5070938;28;21460;-81
2023/10/13 10:08:50;;;;;;;18.88;8.95;;;;;;;-143.21;32.86;71086.75;5068231;28;20738;-80
2023/10/13 10:11:58;;;;;;;18.20;8.82;;;;;;;-143.21;31.18;71027.28;5070918;28;20275;-83
2023/10/13 10:14:41;;;;;;;21.20;8.50;;;;;;;-143.21;30.99;71025.31;5036565;28;20205;-83
2023/10/13 10:17:09;;;;;;;16.48;8.60;;;;;;;-143.21;31.35;71011.44;5070757;28;20209;-83
2023/10/13 10:19:54;;;;;;;16.02;7.95;;;;;;;-143.21;30.71;70953.94;5070332;28;20202;-83
2023/10/13 10:22:33;;;;;;;18.38;7.95;;;;;;;-143.21;29.89;70896.47;5071403;28;20755;-84
2023/10/13 10:25:01;;;;;;;17.00;8.27;;;;;;;-143.21;29.49;70866.72;5071386;28;20201;-84
2023/10/13 10:27:32;;;;;;;17.45;7.82;;;;;;;-143.21;29.30;70821.13;5070602;28;20584;-84
2023/10/13 10:30:13;;;;;;;19.20;8.30;;;;;;;-143.21;28.97;70771.56;5070450;28;20312;-84
2023/10/13 10:32:41;;;;;;;20.08;7.82;;;;;;;-143.21;29.04;70737.88;5070809;28;20205;-82
2023/10/13 10:35:20;;;;;;;22.20;8.43;;;;;;;-143.21;28.44;70686.34;5071491;28;20601;-83
2023/10/13 10:38:11;;;;;;;16.33;7.15;;;;;;;-143.21;27.73;70664.53;5070315;28;20237;-82
2023/10/13 10:40:51;;;;;;;17.00;7.43;;;;;;;-143.21;27.49;70672.47;5067310;28;20600;-79
2023/10/13 10:43:28;;;;;;;14.43;6.10;;;;;;;-143.21;27.14;70735.91;5070687;28;20229;-83
2023/10/13 10:45:59;;;;;;;19.17;6.28;;;;;;;-143.21;27.32;70763.66;5069377;28;20205;-81
2023/10/13 10:48:42;;;;;;;13.27;5.95;;;;;;;-143.21;27.26;70789.41;5069743;28;20201;-83
2023/10/13 10:51:21;;;;;;;15.30;6.32;;;;;;;-143.21;27.55;70775.53;5069393;28;20205;-83
2023/10/13 10:54:31;;;;;;;19.48;7.07;;;;;;;-143.21;27.84;70757.69;5068228;28;20676;-85
2023/10/13 10:57:10;;;;;;;12.57;6.93;;;;;;;-143.21;28.50;70722.03;5068936;28;20212;-79
2023/10/13 10:59:41;;;;;;;16.90;7.00;;;;;;;-143.21;27.69;70710.13;5069223;28;20751;-80
2023/10/13 11:02:08;;;;;;;14.85;6.50;;;;;;;-143.21;27.46;70708.16;5068835;28;20208;-82
2023/10/13 11:04:41;;;;;;;10.70;6.30;;;;;;;-143.21;27.26;70686.34;5069461;28;20217;-78
2023/10/13 11:07:11;;;;;;;16.95;6.32;;;;;;;-143.21;27.38;70690.31;5068201;28;20568;-80
2023/10/13 11:10:20;;;;;;;14.52;6.20;;;;;;;-143.21;27.83;70696.25;5069106;28;20193;-81
2023/10/13 11:13:12;;;;;;;15.40;5.80;;;;;;;-143.21;27.02;70676.44;5086879;28;20201;-83
2023/10/13 11:16:13;;;;;;;15.15;5.95;;;;;;;-143.21;26.92;70642.72;5051717;28;20369;-82
2023/10/13 11:18:43;;;;;;;13.82;5.60;;;;;;;-143.21;27.05;70571.38;5054814;28;20201;-84
2023/10/13 11:21:16;;;;;;;24.55;5.93;;;;;;;-143.21;26.22;70535.69;5072893;28;20209;-82
2023/10/13 11:23:44;;;;;;;9.10;5.20;;;;;;;-143.21;25.89;70488.13;5072820;28;20213;-82
2023/10/13 11:26:11;;;;;;;28.23;5.63;;;;;;;-143.21;25.94;70430.66;5073282;28;20208;-82
2023/10/13 11:28:51;;;;;;;12.35;5.65;;;;;;;-143.21;25.55;70373.16;5072926;28;20279;-83
2023/10/13 11:31:19;;;;;;;17.35;6.30;;;;;;;-143.21;24.38;70325.59;5072901;28;20203;-82
2023/10/13 11:33:47;;;;;;;16.45;5.13;;;;;;;-143.21;24.38;70331.53;5072404;28;20197;-83
2023/10/13 11:36:17;;;;;;;16.35;4.70;;;;;;;-143.21;24.01;70359.28;5071627;28;20213;-82
2023/10/13 11:38:49;;;;;;;11.63;4.55;;;;;;;-143.21;24.79;70404.88;5071177;28;20197;-83
2023/10/13 11:41:19;;;;;;;16.48;4.90;;;;;;;-143.21;24.32;70410.81;5072396;28;20532;-84
2023/10/13 11:44:11;;;;;;;10.20;4.00;;;;;;;-143.21;24.63;70385.06;5071676;28;20224;-79
2023/10/13 11:49:36;;;;;;;10.77;4.30;;;;;;;-143.21;24.35;70321.63;5046049;28;20572;-81
2023/10/13 11:54:51;;;;;;;9.45;3.80;;;;;;;-143.21;24.30;70303.78;5067667;28;20796;-80
2023/10/13 11:57:19;;;;;;;7.90;3.83;;;;;;;-143.21;23.98;70268.13;5060671;28;20209;-80
2023/10/13 11:59:53;;;;;;;9.68;4.10;;;;;;;-143.21;24.12;70224.50;5068990;28;20197;-79
2023/10/13 12:05:12;;;;;;;14.15;4.30;;;;;;;-143.21;23.61;70178.94;5074096;28;20254;-80
2023/10/13 12:07:51;;;;;;;10.68;3.65;;;;;;;-143.21;23.48;70169.03;5074203;28;20246;-79
2023/10/13 12:10:38;;;;;;;12.65;3.80;;;;;;;-143.21;23.50;70147.22;5073776;28;20680;-80
2023/10/13 12:13:09;;;;;;;7.43;3.30;;;;;;;-143.21;23.23;70111.53;5074988;28;20254;-79
2023/10/13 12:15:52;;;;;;;9.30;3.53;;;;;;;-143.21;23.17;70087.75;5074259;28;20189;-79
2023/10/13 12:18:23;;;;;;;9.38;3.22;;;;;;;-143.21;22.45;70069.94;5074311;28;20239;-79
2023/10/13 12:20:50;;;;;;;9.50;3.67;;;;;;;-143.21;22.72;70077.84;5074476;28;20193;-79
2023/10/13 12:23:17;;;;;;;9.52;3.38;;;;;;;-143.21;22.84;70069.94;5074383;28;20205;-79
2023/10/13 12:25:54;;;;;;;6.78;3.10;;;;;;;-143.21;22.45;70085.78;5074630;28;20305;-80
2023/10/13 12:28:23;;;;;;;9.90;3.38;;;;;;;-143.21;21.91;70073.91;5074772;28;20229;-79
2023/10/13 12:30:52;;;;;;;6.65;3.05;;;;;;;-143.21;21.98;70058.03;5074721;28;20193;-81
2023/10/13 12:33:25;;;;;;;12.30;3.25;;;;;;;-143.21;22.43;70028.31;5074368;28;20197;-78
2023/10/13 12:36:06;;;;;;;6.88;3.45;;;;;;;-143.21;22.01;70000.56;5074502;28;20663;-79
2023/10/13 12:48:55;;;;;;;7.10;3.00;;;;;;;-143.21;22.08;69964.91;5074102;28;20611;-80
2023/10/13 12:52:56;;;;;;;6.82;2.83;;;;;;;-143.21;21.35;69877.69;5073017;28;20740;-83
2023/10/13 12:58:14;;;;;;;8.25;3.50;;;;;;;-143.21;21.14;69814.28;5073531;28;20201;-80
2023/10/13 13:00:48;;;;;;;8.77;3.60;;;;;;;-143.21;20.95;69820.22;5074185;28;20652;-80
2023/10/13 13:03:15;;;;;;;12.85;3.25;;;;;;;-143.21;21.24;69792.47;5073988;28;20543;-79
2023/10/13 13:05:46;;;;;;;8.13;3.47;;;;;;;-143.21;21.28;69754.81;5073468;28;20663;-80
2023/10/13 13:08:21;;;;;;;8.63;3.40;;;;;;;-143.21;20.64;69731.06;5073237;28;20193;-80
2023/10/13 13:10:49;;;;;;;7.20;3.13;;;;;;;-143.21;20.88;69725.09;5072574;28;20284;-82
2023/10/13 13:13:24;;;;;;;9.55;3.35;;;;;;;-143.21;20.89;69727.09;5073969;28;20203;-82
2023/10/13 13:15:52;;;;;;;7.95;4.07;;;;;;;-143.21;20.90;69683.50;5073939;28;20177;-83
2023/10/13 13:18:19;;;;;;;8.60;3.00;;;;;;;-143.21;21.12;69667.63;5073827;28;20196;-82
2023/10/13 13:20:53;;;;;;;7.88;3.00;;;;;;;-143.21;20.43;69639.91;5074529;28;20246;-83
2023/10/13 13:23:31;;;;;;;13.45;3.90;;;;;;;-143.21;20.41;69643.84;5074203;28;20678;-84
2023/10/13 13:25:58;;;;;;;5.60;3.40;;;;;;;-143.21;20.52;69637.91;5069045;28;20250;-82
2023/10/13 13:28:29;;;;;;;8.60;3.35;;;;;;;-143.21;20.86;69618.09;5073182;28;20215;-81
2023/10/13 13:30:56;;;;;;;9.68;3.22;;;;;;;-143.21;20.43;69584.41;5074326;28;20192;-83
2023/10/13 13:33:26;;;;;;;9.20;3.45;;;;;;;-143.21;19.90;69556.66;5073668;28;20197;-81
2023/10/13 13:35:55;;;;;;;9.57;3.08;;;;;;;-143.21;19.75;69548.75;5074265;28;20288;-82
2023/10/13 13:38:27;;;;;;;7.43;3.17;;;;;;;-143.21;20.03;69580.44;5070485;28;21140;-78
2023/10/13 13:40:55;;;;;;;7.93;3.20;;;;;;;-143.21;20.01;69554.69;5070788;28;20204;-81
2023/10/13 13:43:38;;;;;;;7.97;3.17;;;;;;;-143.21;20.09;69513.06;5069340;28;20213;-82
2023/10/13 13:46:09;;;;;;;10.10;4.00;;;;;;;-143.21;19.70;69477.41;5067328;28;20231;-82
2023/10/13 13:48:36;;;;;;;9.60;3.75;;;;;;;-143.21;19.69;69457.59;5069114;28;20275;-82
2023/10/13 13:51:15;;;;;;;8.82;3.40;;;;;;;-143.21;19.71;69437.78;5070764;28;20235;-80
2023/10/13 13:53:45;;;;;;;11.15;3.50;;;;;;;-143.21;19.60;69447.69;5069517;28;20661;-80
2023/10/13 13:56:15;;;;;;;8.65;3.80;;;;;;;-143.21;19.67;69449.66;5070137;28;20193;-80
2023/10/13 13:58:43;;;;;;;6.68;3.33;;;;;;;-143.21;20.02;69455.59;5070570;28;20224;-81
2023/10/13 14:01:15;;;;;;;10.02;3.55;;;;;;;-143.21;19.70;69465.50;5070067;28;20275;-80